sim
Sign-in with your pilot id or email,
or register
Callsign
Passwort

Schedule Details

Flight Number: RYR4484 (2)
Departure: Nuremberg Airport (EDDN) at 16:35
Arrival: Thessaloniki International Airport (LGTS) at 18:55
Route: Ryanair Passenger Schedule. Enter filed route here before submitting Pirep.

Weather Information
Getting current METAR information for EDDN 211750Z 03002KT CAVOK 20/12 Q1027 NOSIG
Getting current METAR information for LGTS 211750Z 16005KT CAVOK 29/13 Q1016 NOSIG

Schedule Frequency

Route Map